Pagina principale
METAR-TAF:

METAR-TAF

Aeroporti :

Aeroporto di Cordoba-Ing. A. L. V. Taravella

Córdoba, Argentina

latitudine: 31-19S, longitudine: 064-13W, altezza: 484 m

Osservazione

Il bollettino è stato emesso 1 ora e 15 minuti fa, alle 14:00 UTC
Vento 16 kt da nord/nord-est
Temperature 23°C
Umidità 61%
Pressione 1016 hPa
Visibilità 10 km o più
Poco nuvoloso ad un'altezza di 2000 ft

METAR: SACO 201400Z 03016KT 9999 FEW020 23/15 Q1016 NOSIG

Ora: 12:15 (15:15 UTC)

Previsione

Il bollettino è stato emesso 4 ore e 15 minuti fa, alle 11:00 UTC
Previsione valida dal 20 alle 12 UTC al 21 alle 12 UTC
Vento 15 kt da nord-est
Visibilità 10 km o più
Nubi sparse ad un'altezza di 3000 ft

TAF: SACO 201100Z 2012/2112 05015KT 9999 SCT030 TX27/2019Z TN15/2109Z

Osservazioni e previsioni meteorologiche di più di 4000 aeroporti (messaggi METAR e TAF).

Le stazioni disponibili sono rappresentate dai dischi gialli e rossi sulla carta.

Puntare il mouse per vedere il nome della stazione.

Clicca sopra per visualizzare le osservazioni e previsioni meteorologiche.

Per cambiare la mappa : fare clic sui pulsanti verdi con una croce nera per ingrandire, il pulsante verde con un trattino per diminuire, o sulla freccia verde per le mappe adiacenti.


METAR-TAF: